sensor_id;sensor_type;location;lat;lon;timestamp;P1;durP1;ratioP1;P2;durP2;ratioP2
6135;SDS011;24008;42.664;23.372;2023-06-14T00:00:36;19.10;;;13.20;;
6135;SDS011;24008;42.664;23.372;2023-06-14T00:03:06;18.23;;;12.30;;
6135;SDS011;24008;42.664;23.372;2023-06-14T00:05:33;18.67;;;12.13;;
6135;SDS011;24008;42.664;23.372;2023-06-14T00:08:05;19.60;;;12.97;;
6135;SDS011;24008;42.664;23.372;2023-06-14T00:10:33;19.87;;;11.57;;
6135;SDS011;24008;42.664;23.372;2023-06-14T00:13:00;17.77;;;11.17;;
6135;SDS011;24008;42.664;23.372;2023-06-14T00:15:27;16.17;;;11.40;;
6135;SDS011;24008;42.664;23.372;2023-06-14T00:17:54;16.13;;;10.07;;
6135;SDS011;24008;42.664;23.372;2023-06-14T00:20:21;18.30;;;11.07;;
6135;SDS011;24008;42.664;23.372;2023-06-14T00:22:48;15.43;;;10.73;;
6135;SDS011;24008;42.664;23.372;2023-06-14T00:25:16;13.77;;;10.70;;
6135;SDS011;24008;42.664;23.372;2023-06-14T00:27:43;17.23;;;10.70;;
6135;SDS011;24008;42.664;23.372;2023-06-14T00:30:10;13.77;;;9.93;;
6135;SDS011;24008;42.664;23.372;2023-06-14T00:32:38;15.13;;;10.17;;
6135;SDS011;24008;42.664;23.372;2023-06-14T00:35:04;14.27;;;10.03;;
6135;SDS011;24008;42.664;23.372;2023-06-14T00:37:33;14.80;;;10.87;;
6135;SDS011;24008;42.664;23.372;2023-06-14T00:39:59;13.67;;;10.37;;
6135;SDS011;24008;42.664;23.372;2023-06-14T00:42:27;18.67;;;10.07;;
6135;SDS011;24008;42.664;23.372;2023-06-14T00:44:55;14.47;;;9.67;;
6135;SDS011;24008;42.664;23.372;2023-06-14T00:47:21;15.40;;;10.53;;
6135;SDS011;24008;42.664;23.372;2023-06-14T00:49:49;16.97;;;10.47;;
6135;SDS011;24008;42.664;23.372;2023-06-14T00:52:17;17.70;;;10.43;;
6135;SDS011;24008;42.664;23.372;2023-06-14T00:54:44;15.40;;;10.83;;
6135;SDS011;24008;42.664;23.372;2023-06-14T00:57:11;13.53;;;10.43;;
6135;SDS011;24008;42.664;23.372;2023-06-14T00:59:42;15.83;;;10.50;;
6135;SDS011;24008;42.664;23.372;2023-06-14T01:02:10;16.50;;;10.63;;
6135;SDS011;24008;42.664;23.372;2023-06-14T01:04:38;15.53;;;10.53;;
6135;SDS011;24008;42.664;23.372;2023-06-14T01:07:10;16.67;;;11.00;;
6135;SDS011;24008;42.664;23.372;2023-06-14T01:09:46;16.43;;;10.80;;
6135;SDS011;24008;42.664;23.372;2023-06-14T01:12:24;13.53;;;10.03;;
6135;SDS011;24008;42.664;23.372;2023-06-14T01:14:58;15.03;;;9.83;;
6135;SDS011;24008;42.664;23.372;2023-06-14T01:17:27;14.83;;;9.30;;
6135;SDS011;24008;42.664;23.372;2023-06-14T01:19:57;16.90;;;9.23;;
6135;SDS011;24008;42.664;23.372;2023-06-14T01:22:25;13.53;;;9.23;;
6135;SDS011;24008;42.664;23.372;2023-06-14T01:24:54;12.60;;;9.20;;
6135;SDS011;24008;42.664;23.372;2023-06-14T01:27:22;14.50;;;9.50;;
6135;SDS011;24008;42.664;23.372;2023-06-14T01:29:53;13.53;;;9.77;;
6135;SDS011;24008;42.664;23.372;2023-06-14T01:32:23;13.57;;;9.13;;
6135;SDS011;24008;42.664;23.372;2023-06-14T01:34:51;12.17;;;8.67;;
6135;SDS011;24008;42.664;23.372;2023-06-14T01:37:17;15.17;;;9.83;;
6135;SDS011;24008;42.664;23.372;2023-06-14T01:39:45;14.63;;;9.43;;
6135;SDS011;24008;42.664;23.372;2023-06-14T01:42:16;12.87;;;9.20;;
6135;SDS011;24008;42.664;23.372;2023-06-14T01:44:44;11.70;;;8.67;;
6135;SDS011;24008;42.664;23.372;2023-06-14T01:47:12;12.90;;;9.17;;
6135;SDS011;24008;42.664;23.372;2023-06-14T01:49:41;12.03;;;8.43;;
6135;SDS011;24008;42.664;23.372;2023-06-14T01:52:07;17.97;;;9.93;;
6135;SDS011;24008;42.664;23.372;2023-06-14T01:54:35;12.63;;;9.80;;
6135;SDS011;24008;42.664;23.372;2023-06-14T01:57:07;12.73;;;9.13;;
6135;SDS011;24008;42.664;23.372;2023-06-14T01:59:35;16.90;;;9.37;;
6135;SDS011;24008;42.664;23.372;2023-06-14T02:02:02;14.33;;;9.30;;
6135;SDS011;24008;42.664;23.372;2023-06-14T02:04:29;12.97;;;8.67;;
6135;SDS011;24008;42.664;23.372;2023-06-14T02:06:56;15.77;;;9.60;;
6135;SDS011;24008;42.664;23.372;2023-06-14T02:09:23;14.10;;;9.07;;
6135;SDS011;24008;42.664;23.372;2023-06-14T02:11:50;11.10;;;8.70;;
6135;SDS011;24008;42.664;23.372;2023-06-14T02:14:17;13.27;;;9.03;;
6135;SDS011;24008;42.664;23.372;2023-06-14T02:16:45;12.53;;;8.70;;
6135;SDS011;24008;42.664;23.372;2023-06-14T02:19:14;15.03;;;9.43;;
6135;SDS011;24008;42.664;23.372;2023-06-14T02:21:41;13.27;;;9.00;;
6135;SDS011;24008;42.664;23.372;2023-06-14T02:24:08;12.97;;;8.93;;
6135;SDS011;24008;42.664;23.372;2023-06-14T02:26:35;13.00;;;9.43;;
6135;SDS011;24008;42.664;23.372;2023-06-14T02:29:03;13.73;;;10.03;;
6135;SDS011;24008;42.664;23.372;2023-06-14T02:31:30;15.43;;;9.50;;
6135;SDS011;24008;42.664;23.372;2023-06-14T02:33:58;13.30;;;8.63;;
6135;SDS011;24008;42.664;23.372;2023-06-14T02:36:25;14.60;;;9.33;;
6135;SDS011;24008;42.664;23.372;2023-06-14T02:38:52;15.60;;;9.37;;
6135;SDS011;24008;42.664;23.372;2023-06-14T02:41:19;13.50;;;9.57;;
6135;SDS011;24008;42.664;23.372;2023-06-14T02:43:45;12.37;;;9.50;;
6135;SDS011;24008;42.664;23.372;2023-06-14T02:46:12;14.97;;;9.67;;
6135;SDS011;24008;42.664;23.372;2023-06-14T02:48:40;14.80;;;9.60;;
6135;SDS011;24008;42.664;23.372;2023-06-14T02:51:08;14.83;;;9.73;;
6135;SDS011;24008;42.664;23.372;2023-06-14T02:53:35;11.10;;;9.23;;
6135;SDS011;24008;42.664;23.372;2023-06-14T02:56:02;13.87;;;10.07;;
6135;SDS011;24008;42.664;23.372;2023-06-14T02:58:30;16.07;;;9.70;;
6135;SDS011;24008;42.664;23.372;2023-06-14T03:00:58;14.23;;;9.97;;
6135;SDS011;24008;42.664;23.372;2023-06-14T03:03:27;15.63;;;9.80;;
6135;SDS011;24008;42.664;23.372;2023-06-14T03:05:54;14.53;;;10.20;;
6135;SDS011;24008;42.664;23.372;2023-06-14T03:08:23;14.07;;;9.03;;
6135;SDS011;24008;42.664;23.372;2023-06-14T03:10:52;15.50;;;10.60;;
6135;SDS011;24008;42.664;23.372;2023-06-14T03:13:21;13.97;;;9.80;;
6135;SDS011;24008;42.664;23.372;2023-06-14T03:15:48;13.83;;;10.37;;
6135;SDS011;24008;42.664;23.372;2023-06-14T03:18:16;13.63;;;9.07;;
6135;SDS011;24008;42.664;23.372;2023-06-14T03:20:42;15.93;;;10.07;;
6135;SDS011;24008;42.664;23.372;2023-06-14T03:23:10;13.33;;;9.93;;
6135;SDS011;24008;42.664;23.372;2023-06-14T03:25:39;19.17;;;10.43;;
6135;SDS011;24008;42.664;23.372;2023-06-14T03:28:07;17.53;;;10.83;;
6135;SDS011;24008;42.664;23.372;2023-06-14T03:30:34;17.43;;;10.53;;
6135;SDS011;24008;42.664;23.372;2023-06-14T03:33:01;14.97;;;10.40;;
6135;SDS011;24008;42.664;23.372;2023-06-14T03:35:28;14.97;;;10.30;;
6135;SDS011;24008;42.664;23.372;2023-06-14T03:37:55;14.17;;;10.17;;
6135;SDS011;24008;42.664;23.372;2023-06-14T03:40:22;15.07;;;9.87;;
6135;SDS011;24008;42.664;23.372;2023-06-14T03:42:53;14.33;;;10.33;;
6135;SDS011;24008;42.664;23.372;2023-06-14T03:45:20;12.73;;;10.10;;
6135;SDS011;24008;42.664;23.372;2023-06-14T03:47:47;14.80;;;9.80;;
6135;SDS011;24008;42.664;23.372;2023-06-14T03:50:14;13.27;;;9.50;;
6135;SDS011;24008;42.664;23.372;2023-06-14T03:52:41;14.00;;;10.27;;
6135;SDS011;24008;42.664;23.372;2023-06-14T03:55:08;14.47;;;9.83;;
6135;SDS011;24008;42.664;23.372;2023-06-14T03:57:38;17.90;;;11.10;;
6135;SDS011;24008;42.664;23.372;2023-06-14T04:00:07;12.73;;;9.67;;
6135;SDS011;24008;42.664;23.372;2023-06-14T04:02:36;14.27;;;9.67;;
6135;SDS011;24008;42.664;23.372;2023-06-14T04:05:02;13.97;;;9.83;;
6135;SDS011;24008;42.664;23.372;2023-06-14T04:07:30;14.03;;;10.70;;
6135;SDS011;24008;42.664;23.372;2023-06-14T04:09:57;14.73;;;9.77;;
6135;SDS011;24008;42.664;23.372;2023-06-14T04:12:24;16.60;;;9.97;;
6135;SDS011;24008;42.664;23.372;2023-06-14T04:14:50;16.00;;;10.73;;
6135;SDS011;24008;42.664;23.372;2023-06-14T04:17:19;13.13;;;10.47;;
6135;SDS011;24008;42.664;23.372;2023-06-14T04:19:45;16.17;;;10.80;;
6135;SDS011;24008;42.664;23.372;2023-06-14T04:22:12;15.30;;;10.60;;
6135;SDS011;24008;42.664;23.372;2023-06-14T04:24:39;15.00;;;10.53;;
6135;SDS011;24008;42.664;23.372;2023-06-14T04:27:07;16.37;;;10.77;;
6135;SDS011;24008;42.664;23.372;2023-06-14T04:29:34;19.40;;;14.37;;
6135;SDS011;24008;42.664;23.372;2023-06-14T04:32:01;16.17;;;11.80;;
6135;SDS011;24008;42.664;23.372;2023-06-14T04:34:29;17.07;;;13.33;;
6135;SDS011;24008;42.664;23.372;2023-06-14T04:36:57;15.00;;;11.10;;
6135;SDS011;24008;42.664;23.372;2023-06-14T04:39:26;15.73;;;11.13;;
6135;SDS011;24008;42.664;23.372;2023-06-14T04:41:53;15.80;;;9.70;;
6135;SDS011;24008;42.664;23.372;2023-06-14T04:44:22;15.57;;;10.57;;
6135;SDS011;24008;42.664;23.372;2023-06-14T04:46:55;16.60;;;11.57;;
6135;SDS011;24008;42.664;23.372;2023-06-14T04:49:23;15.30;;;10.60;;
6135;SDS011;24008;42.664;23.372;2023-06-14T04:51:53;15.30;;;10.87;;
6135;SDS011;24008;42.664;23.372;2023-06-14T04:54:24;11.93;;;9.23;;
6135;SDS011;24008;42.664;23.372;2023-06-14T04:56:51;10.97;;;9.30;;
6135;SDS011;24008;42.664;23.372;2023-06-14T04:59:18;14.07;;;10.97;;
6135;SDS011;24008;42.664;23.372;2023-06-14T05:01:45;14.93;;;11.47;;
6135;SDS011;24008;42.664;23.372;2023-06-14T05:04:13;13.27;;;10.53;;
6135;SDS011;24008;42.664;23.372;2023-06-14T05:06:40;17.20;;;12.10;;
6135;SDS011;24008;42.664;23.372;2023-06-14T05:09:11;17.03;;;11.90;;
6135;SDS011;24008;42.664;23.372;2023-06-14T05:11:40;17.40;;;13.07;;
6135;SDS011;24008;42.664;23.372;2023-06-14T05:14:09;18.17;;;12.73;;
6135;SDS011;24008;42.664;23.372;2023-06-14T05:16:35;19.83;;;13.23;;
6135;SDS011;24008;42.664;23.372;2023-06-14T05:19:04;17.40;;;13.17;;
6135;SDS011;24008;42.664;23.372;2023-06-14T05:21:31;18.37;;;13.13;;
6135;SDS011;24008;42.664;23.372;2023-06-14T05:24:00;23.83;;;14.13;;
6135;SDS011;24008;42.664;23.372;2023-06-14T05:26:28;23.53;;;13.63;;
6135;SDS011;24008;42.664;23.372;2023-06-14T05:28:55;20.30;;;13.27;;
6135;SDS011;24008;42.664;23.372;2023-06-14T05:31:22;18.97;;;13.03;;
6135;SDS011;24008;42.664;23.372;2023-06-14T05:33:49;18.13;;;14.07;;
6135;SDS011;24008;42.664;23.372;2023-06-14T05:36:16;21.77;;;13.23;;
6135;SDS011;24008;42.664;23.372;2023-06-14T05:38:43;18.30;;;13.13;;
6135;SDS011;24008;42.664;23.372;2023-06-14T05:41:10;17.03;;;13.10;;
6135;SDS011;24008;42.664;23.372;2023-06-14T05:43:38;18.63;;;13.70;;
6135;SDS011;24008;42.664;23.372;2023-06-14T05:46:04;17.00;;;12.87;;
6135;SDS011;24008;42.664;23.372;2023-06-14T05:48:31;17.70;;;13.47;;
6135;SDS011;24008;42.664;23.372;2023-06-14T05:50:58;15.90;;;11.93;;
6135;SDS011;24008;42.664;23.372;2023-06-14T05:53:25;17.33;;;12.30;;
6135;SDS011;24008;42.664;23.372;2023-06-14T05:55:52;18.50;;;11.80;;
6135;SDS011;24008;42.664;23.372;2023-06-14T05:58:20;18.80;;;12.97;;
6135;SDS011;24008;42.664;23.372;2023-06-14T06:00:48;16.37;;;12.00;;
6135;SDS011;24008;42.664;23.372;2023-06-14T06:03:15;19.30;;;12.87;;
6135;SDS011;24008;42.664;23.372;2023-06-14T06:05:42;16.90;;;12.97;;
6135;SDS011;24008;42.664;23.372;2023-06-14T06:08:08;18.73;;;12.93;;
6135;SDS011;24008;42.664;23.372;2023-06-14T06:10:35;18.83;;;13.03;;
6135;SDS011;24008;42.664;23.372;2023-06-14T06:13:02;17.70;;;13.30;;
6135;SDS011;24008;42.664;23.372;2023-06-14T06:15:29;16.37;;;12.77;;
6135;SDS011;24008;42.664;23.372;2023-06-14T06:17:58;17.50;;;12.52;;
6135;SDS011;24008;42.664;23.372;2023-06-14T06:20:25;17.70;;;13.48;;
6135;SDS011;24008;42.664;23.372;2023-06-14T06:22:55;17.00;;;13.30;;
6135;SDS011;24008;42.664;23.372;2023-06-14T06:25:22;17.38;;;12.55;;
6135;SDS011;24008;42.664;23.372;2023-06-14T06:27:51;18.50;;;13.35;;
6135;SDS011;24008;42.664;23.372;2023-06-14T06:30:18;17.83;;;14.40;;
6135;SDS011;24008;42.664;23.372;2023-06-14T06:32:44;19.90;;;13.93;;
6135;SDS011;24008;42.664;23.372;2023-06-14T06:35:13;19.65;;;14.60;;
6135;SDS011;24008;42.664;23.372;2023-06-14T06:37:41;21.92;;;15.18;;
6135;SDS011;24008;42.664;23.372;2023-06-14T06:40:08;19.77;;;15.67;;
6135;SDS011;24008;42.664;23.372;2023-06-14T06:42:35;25.40;;;14.43;;
6135;SDS011;24008;42.664;23.372;2023-06-14T06:45:02;22.40;;;14.83;;
6135;SDS011;24008;42.664;23.372;2023-06-14T06:47:30;23.43;;;15.87;;
6135;SDS011;24008;42.664;23.372;2023-06-14T06:49:57;21.00;;;15.70;;
6135;SDS011;24008;42.664;23.372;2023-06-14T06:52:25;23.57;;;15.77;;
6135;SDS011;24008;42.664;23.372;2023-06-14T06:54:52;22.43;;;15.90;;
6135;SDS011;24008;42.664;23.372;2023-06-14T06:57:21;24.63;;;16.67;;
6135;SDS011;24008;42.664;23.372;2023-06-14T06:59:48;20.73;;;16.00;;
6135;SDS011;24008;42.664;23.372;2023-06-14T07:02:15;24.13;;;15.73;;
6135;SDS011;24008;42.664;23.372;2023-06-14T07:04:42;21.77;;;14.77;;
6135;SDS011;24008;42.664;23.372;2023-06-14T07:07:09;20.43;;;15.20;;
6135;SDS011;24008;42.664;23.372;2023-06-14T07:09:37;20.33;;;15.50;;
6135;SDS011;24008;42.664;23.372;2023-06-14T07:12:04;19.73;;;14.60;;
6135;SDS011;24008;42.664;23.372;2023-06-14T07:14:31;22.90;;;15.43;;
6135;SDS011;24008;42.664;23.372;2023-06-14T07:16:58;20.70;;;14.95;;
6135;SDS011;24008;42.664;23.372;2023-06-14T07:19:25;22.45;;;14.82;;
6135;SDS011;24008;42.664;23.372;2023-06-14T07:21:52;21.02;;;14.98;;
6135;SDS011;24008;42.664;23.372;2023-06-14T07:24:19;22.88;;;16.15;;
6135;SDS011;24008;42.664;23.372;2023-06-14T07:26:48;23.25;;;16.15;;
6135;SDS011;24008;42.664;23.372;2023-06-14T07:29:15;22.55;;;16.58;;
6135;SDS011;24008;42.664;23.372;2023-06-14T07:31:42;22.40;;;16.00;;
6135;SDS011;24008;42.664;23.372;2023-06-14T07:34:09;21.35;;;14.90;;
6135;SDS011;24008;42.664;23.372;2023-06-14T07:36:36;19.55;;;13.20;;
6135;SDS011;24008;42.664;23.372;2023-06-14T07:39:03;19.27;;;13.65;;
6135;SDS011;24008;42.664;23.372;2023-06-14T07:41:31;16.70;;;13.02;;
6135;SDS011;24008;42.664;23.372;2023-06-14T07:44:00;18.02;;;13.77;;
6135;SDS011;24008;42.664;23.372;2023-06-14T07:46:27;24.35;;;12.75;;
6135;SDS011;24008;42.664;23.372;2023-06-14T07:48:55;15.55;;;12.63;;
6135;SDS011;24008;42.664;23.372;2023-06-14T07:51:22;16.90;;;13.88;;
6135;SDS011;24008;42.664;23.372;2023-06-14T07:53:50;15.25;;;12.90;;
6135;SDS011;24008;42.664;23.372;2023-06-14T07:56:16;15.35;;;12.30;;
6135;SDS011;24008;42.664;23.372;2023-06-14T07:58:43;16.20;;;12.50;;
6135;SDS011;24008;42.664;23.372;2023-06-14T08:01:11;22.23;;;13.52;;
6135;SDS011;24008;42.664;23.372;2023-06-14T08:03:38;14.55;;;12.27;;
6135;SDS011;24008;42.664;23.372;2023-06-14T08:06:05;14.32;;;12.77;;
6135;SDS011;24008;42.664;23.372;2023-06-14T08:08:33;15.82;;;13.70;;
6135;SDS011;24008;42.664;23.372;2023-06-14T08:11:00;16.38;;;13.43;;
6135;SDS011;24008;42.664;23.372;2023-06-14T08:13:27;19.40;;;13.55;;
6135;SDS011;24008;42.664;23.372;2023-06-14T08:15:53;16.90;;;12.57;;
6135;SDS011;24008;42.664;23.372;2023-06-14T08:18:23;18.20;;;13.02;;
6135;SDS011;24008;42.664;23.372;2023-06-14T08:20:50;16.17;;;12.90;;
6135;SDS011;24008;42.664;23.372;2023-06-14T08:23:19;18.15;;;12.70;;
6135;SDS011;24008;42.664;23.372;2023-06-14T08:25:46;18.88;;;12.73;;
6135;SDS011;24008;42.664;23.372;2023-06-14T08:28:13;18.02;;;12.07;;
6135;SDS011;24008;42.664;23.372;2023-06-14T08:30:40;13.73;;;11.27;;
6135;SDS011;24008;42.664;23.372;2023-06-14T08:33:08;12.70;;;10.70;;
6135;SDS011;24008;42.664;23.372;2023-06-14T08:35:36;15.88;;;11.10;;
6135;SDS011;24008;42.664;23.372;2023-06-14T08:38:04;13.30;;;11.55;;
6135;SDS011;24008;42.664;23.372;2023-06-14T08:40:31;13.55;;;11.55;;
6135;SDS011;24008;42.664;23.372;2023-06-14T08:43:04;13.68;;;11.98;;
6135;SDS011;24008;42.664;23.372;2023-06-14T08:45:31;13.02;;;11.35;;
6135;SDS011;24008;42.664;23.372;2023-06-14T08:47:58;14.40;;;10.30;;
6135;SDS011;24008;42.664;23.372;2023-06-14T08:50:26;13.60;;;11.40;;
6135;SDS011;24008;42.664;23.372;2023-06-14T08:52:56;16.35;;;12.38;;
6135;SDS011;24008;42.664;23.372;2023-06-14T08:55:25;14.40;;;12.52;;
6135;SDS011;24008;42.664;23.372;2023-06-14T08:57:54;12.55;;;11.25;;
6135;SDS011;24008;42.664;23.372;2023-06-14T09:00:22;14.18;;;11.25;;
6135;SDS011;24008;42.664;23.372;2023-06-14T09:02:51;13.73;;;10.95;;
6135;SDS011;24008;42.664;23.372;2023-06-14T09:05:21;12.60;;;11.30;;
6135;SDS011;24008;42.664;23.372;2023-06-14T09:07:49;12.93;;;11.05;;
6135;SDS011;24008;42.664;23.372;2023-06-14T09:10:18;11.45;;;10.25;;
6135;SDS011;24008;42.664;23.372;2023-06-14T09:12:45;16.40;;;13.00;;
6135;SDS011;24008;42.664;23.372;2023-06-14T09:15:12;14.60;;;12.80;;
6135;SDS011;24008;42.664;23.372;2023-06-14T09:17:39;16.67;;;12.93;;
6135;SDS011;24008;42.664;23.372;2023-06-14T09:20:07;15.73;;;13.73;;
6135;SDS011;24008;42.664;23.372;2023-06-14T09:22:36;17.10;;;13.60;;
6135;SDS011;24008;42.664;23.372;2023-06-14T09:25:03;16.42;;;13.32;;
6135;SDS011;24008;42.664;23.372;2023-06-14T09:27:32;17.40;;;13.27;;
6135;SDS011;24008;42.664;23.372;2023-06-14T09:30:00;19.48;;;13.60;;
6135;SDS011;24008;42.664;23.372;2023-06-14T09:32:28;15.13;;;12.75;;
6135;SDS011;24008;42.664;23.372;2023-06-14T09:34:56;15.07;;;13.05;;
6135;SDS011;24008;42.664;23.372;2023-06-14T09:37:28;16.38;;;12.80;;
6135;SDS011;24008;42.664;23.372;2023-06-14T09:39:56;17.83;;;12.35;;
6135;SDS011;24008;42.664;23.372;2023-06-14T09:42:23;14.93;;;12.88;;
6135;SDS011;24008;42.664;23.372;2023-06-14T09:44:53;14.50;;;12.07;;
6135;SDS011;24008;42.664;23.372;2023-06-14T09:47:21;14.25;;;11.55;;
6135;SDS011;24008;42.664;23.372;2023-06-14T09:49:48;14.70;;;11.32;;
6135;SDS011;24008;42.664;23.372;2023-06-14T09:52:17;15.00;;;11.63;;
6135;SDS011;24008;42.664;23.372;2023-06-14T09:54:46;14.07;;;12.52;;
6135;SDS011;24008;42.664;23.372;2023-06-14T09:57:15;15.57;;;12.65;;
6135;SDS011;24008;42.664;23.372;2023-06-14T09:59:43;17.40;;;13.10;;
6135;SDS011;24008;42.664;23.372;2023-06-14T10:02:14;15.07;;;12.52;;
6135;SDS011;24008;42.664;23.372;2023-06-14T10:04:50;19.25;;;13.50;;
6135;SDS011;24008;42.664;23.372;2023-06-14T10:07:22;16.85;;;13.70;;
6135;SDS011;24008;42.664;23.372;2023-06-14T10:09:52;14.13;;;12.13;;
6135;SDS011;24008;42.664;23.372;2023-06-14T10:12:20;13.98;;;12.02;;
6135;SDS011;24008;42.664;23.372;2023-06-14T10:14:48;12.32;;;10.75;;
6135;SDS011;24008;42.664;23.372;2023-06-14T10:17:22;16.13;;;10.77;;
6135;SDS011;24008;42.664;23.372;2023-06-14T10:19:55;12.18;;;10.50;;
6135;SDS011;24008;42.664;23.372;2023-06-14T10:22:30;14.25;;;11.93;;
6135;SDS011;24008;42.664;23.372;2023-06-14T10:25:02;12.80;;;10.68;;
6135;SDS011;24008;42.664;23.372;2023-06-14T10:27:37;12.43;;;10.20;;
6135;SDS011;24008;42.664;23.372;2023-06-14T10:30:04;12.52;;;9.98;;
6135;SDS011;24008;42.664;23.372;2023-06-14T10:32:35;16.52;;;11.77;;
6135;SDS011;24008;42.664;23.372;2023-06-14T10:35:29;14.80;;;11.35;;
6135;SDS011;24008;42.664;23.372;2023-06-14T10:38:05;11.13;;;9.88;;
6135;SDS011;24008;42.664;23.372;2023-06-14T10:40:33;14.57;;;10.13;;
6135;SDS011;24008;42.664;23.372;2023-06-14T10:43:00;10.82;;;9.73;;
6135;SDS011;24008;42.664;23.372;2023-06-14T10:45:27;11.25;;;10.13;;
6135;SDS011;24008;42.664;23.372;2023-06-14T10:47:56;10.32;;;9.15;;
6135;SDS011;24008;42.664;23.372;2023-06-14T10:50:27;11.52;;;9.57;;
6135;SDS011;24008;42.664;23.372;2023-06-14T10:52:54;10.85;;;9.75;;
6135;SDS011;24008;42.664;23.372;2023-06-14T10:55:21;11.27;;;10.10;;
6135;SDS011;24008;42.664;23.372;2023-06-14T10:57:50;12.82;;;9.82;;
6135;SDS011;24008;42.664;23.372;2023-06-14T11:00:18;11.02;;;9.82;;
6135;SDS011;24008;42.664;23.372;2023-06-14T11:03:02;13.38;;;10.60;;
6135;SDS011;24008;42.664;23.372;2023-06-14T11:05:52;11.05;;;9.68;;
6135;SDS011;24008;42.664;23.372;2023-06-14T11:11:14;11.52;;;10.38;;
6135;SDS011;24008;42.664;23.372;2023-06-14T11:13:42;16.20;;;12.57;;
6135;SDS011;24008;42.664;23.372;2023-06-14T11:16:10;14.15;;;10.93;;
6135;SDS011;24008;42.664;23.372;2023-06-14T11:18:39;11.63;;;9.77;;
6135;SDS011;24008;42.664;23.372;2023-06-14T11:21:06;13.73;;;9.73;;
6135;SDS011;24008;42.664;23.372;2023-06-14T11:23:34;10.90;;;9.52;;
6135;SDS011;24008;42.664;23.372;2023-06-14T11:26:01;10.57;;;9.10;;
6135;SDS011;24008;42.664;23.372;2023-06-14T11:28:36;11.50;;;9.25;;
6135;SDS011;24008;42.664;23.372;2023-06-14T11:31:04;13.90;;;10.75;;
6135;SDS011;24008;42.664;23.372;2023-06-14T11:33:31;14.40;;;10.35;;
6135;SDS011;24008;42.664;23.372;2023-06-14T11:36:01;11.48;;;9.45;;
6135;SDS011;24008;42.664;23.372;2023-06-14T11:38:29;10.57;;;8.65;;
6135;SDS011;24008;42.664;23.372;2023-06-14T11:40:58;10.13;;;9.13;;
6135;SDS011;24008;42.664;23.372;2023-06-14T11:43:25;10.73;;;9.63;;
6135;SDS011;24008;42.664;23.372;2023-06-14T11:45:52;10.57;;;8.60;;
6135;SDS011;24008;42.664;23.372;2023-06-14T11:48:19;10.52;;;8.85;;
6135;SDS011;24008;42.664;23.372;2023-06-14T11:50:49;9.52;;;8.52;;
6135;SDS011;24008;42.664;23.372;2023-06-14T11:53:17;9.77;;;8.60;;
6135;SDS011;24008;42.664;23.372;2023-06-14T11:55:44;8.93;;;7.97;;
6135;SDS011;24008;42.664;23.372;2023-06-14T11:58:12;10.52;;;8.60;;
6135;SDS011;24008;42.664;23.372;2023-06-14T12:00:40;9.60;;;8.27;;
6135;SDS011;24008;42.664;23.372;2023-06-14T12:03:08;10.40;;;8.65;;
6135;SDS011;24008;42.664;23.372;2023-06-14T12:05:35;11.43;;;8.52;;
6135;SDS011;24008;42.664;23.372;2023-06-14T12:08:02;9.45;;;8.30;;
6135;SDS011;24008;42.664;23.372;2023-06-14T12:10:33;10.55;;;8.50;;
6135;SDS011;24008;42.664;23.372;2023-06-14T12:13:06;10.38;;;9.27;;
6135;SDS011;24008;42.664;23.372;2023-06-14T12:15:33;11.75;;;8.80;;
6135;SDS011;24008;42.664;23.372;2023-06-14T12:18:00;10.95;;;8.48;;
6135;SDS011;24008;42.664;23.372;2023-06-14T12:20:28;9.43;;;8.18;;
6135;SDS011;24008;42.664;23.372;2023-06-14T12:22:56;9.90;;;8.90;;
6135;SDS011;24008;42.664;23.372;2023-06-14T12:25:26;10.80;;;8.10;;
6135;SDS011;24008;42.664;23.372;2023-06-14T12:27:57;8.77;;;7.88;;
6135;SDS011;24008;42.664;23.372;2023-06-14T12:30:24;8.40;;;7.60;;
6135;SDS011;24008;42.664;23.372;2023-06-14T12:32:52;10.30;;;7.90;;
6135;SDS011;24008;42.664;23.372;2023-06-14T12:35:19;11.48;;;8.30;;
6135;SDS011;24008;42.664;23.372;2023-06-14T12:37:46;8.50;;;7.70;;
6135;SDS011;24008;42.664;23.372;2023-06-14T12:40:13;10.65;;;7.40;;
6135;SDS011;24008;42.664;23.372;2023-06-14T12:42:40;8.30;;;7.13;;
6135;SDS011;24008;42.664;23.372;2023-06-14T12:45:09;11.38;;;8.00;;
6135;SDS011;24008;42.664;23.372;2023-06-14T12:47:36;8.20;;;6.97;;
6135;SDS011;24008;42.664;23.372;2023-06-14T12:50:05;9.65;;;6.70;;
6135;SDS011;24008;42.664;23.372;2023-06-14T12:52:33;17.85;;;7.90;;
6135;SDS011;24008;42.664;23.372;2023-06-14T12:55:01;7.72;;;6.93;;
6135;SDS011;24008;42.664;23.372;2023-06-14T12:57:29;8.88;;;6.95;;
6135;SDS011;24008;42.664;23.372;2023-06-14T12:59:56;7.88;;;6.55;;
6135;SDS011;24008;42.664;23.372;2023-06-14T13:02:24;14.18;;;6.88;;
6135;SDS011;24008;42.664;23.372;2023-06-14T13:04:51;9.75;;;6.93;;
6135;SDS011;24008;42.664;23.372;2023-06-14T13:07:18;7.75;;;6.60;;
6135;SDS011;24008;42.664;23.372;2023-06-14T13:09:44;8.50;;;6.93;;
6135;SDS011;24008;42.664;23.372;2023-06-14T13:12:12;9.73;;;7.97;;
6135;SDS011;24008;42.664;23.372;2023-06-14T13:14:39;7.97;;;7.18;;
6135;SDS011;24008;42.664;23.372;2023-06-14T13:17:07;8.82;;;7.93;;
6135;SDS011;24008;42.664;23.372;2023-06-14T13:19:36;9.75;;;8.70;;
6135;SDS011;24008;42.664;23.372;2023-06-14T13:22:04;10.88;;;8.65;;
6135;SDS011;24008;42.664;23.372;2023-06-14T13:24:31;13.50;;;8.93;;
6135;SDS011;24008;42.664;23.372;2023-06-14T13:26:58;11.00;;;9.00;;
6135;SDS011;24008;42.664;23.372;2023-06-14T13:29:24;13.90;;;10.15;;
6135;SDS011;24008;42.664;23.372;2023-06-14T13:31:52;16.97;;;10.50;;
6135;SDS011;24008;42.664;23.372;2023-06-14T13:34:20;14.13;;;10.90;;
6135;SDS011;24008;42.664;23.372;2023-06-14T13:36:49;15.43;;;11.53;;
6135;SDS011;24008;42.664;23.372;2023-06-14T13:39:16;12.20;;;10.57;;
6135;SDS011;24008;42.664;23.372;2023-06-14T13:41:42;15.43;;;11.43;;
6135;SDS011;24008;42.664;23.372;2023-06-14T13:44:09;15.83;;;11.43;;
6135;SDS011;24008;42.664;23.372;2023-06-14T13:46:39;16.03;;;11.60;;
6135;SDS011;24008;42.664;23.372;2023-06-14T13:49:07;15.03;;;11.37;;
6135;SDS011;24008;42.664;23.372;2023-06-14T13:51:35;12.97;;;10.87;;
6135;SDS011;24008;42.664;23.372;2023-06-14T13:54:04;14.27;;;11.80;;
6135;SDS011;24008;42.664;23.372;2023-06-14T13:56:31;18.87;;;12.20;;
6135;SDS011;24008;42.664;23.372;2023-06-14T13:58:57;17.07;;;12.57;;
6135;SDS011;24008;42.664;23.372;2023-06-14T14:01:25;15.47;;;11.70;;
6135;SDS011;24008;42.664;23.372;2023-06-14T14:03:54;13.00;;;10.57;;
6135;SDS011;24008;42.664;23.372;2023-06-14T14:06:20;13.07;;;10.20;;
6135;SDS011;24008;42.664;23.372;2023-06-14T14:08:47;12.73;;;9.77;;
6135;SDS011;24008;42.664;23.372;2023-06-14T14:11:15;10.77;;;8.77;;
6135;SDS011;24008;42.664;23.372;2023-06-14T14:13:42;12.63;;;9.60;;
6135;SDS011;24008;42.664;23.372;2023-06-14T14:16:09;11.67;;;9.47;;
6135;SDS011;24008;42.664;23.372;2023-06-14T14:18:36;10.70;;;9.20;;
6135;SDS011;24008;42.664;23.372;2023-06-14T14:21:04;10.67;;;8.73;;
6135;SDS011;24008;42.664;23.372;2023-06-14T14:23:32;11.77;;;8.73;;
6135;SDS011;24008;42.664;23.372;2023-06-14T14:25:59;13.63;;;10.13;;
6135;SDS011;24008;42.664;23.372;2023-06-14T14:28:30;10.93;;;8.77;;
6135;SDS011;24008;42.664;23.372;2023-06-14T14:30:57;12.83;;;9.00;;
6135;SDS011;24008;42.664;23.372;2023-06-14T14:33:24;14.57;;;10.10;;